Time;durP1;ratioP1;P1;durP2;ratioP2;P2;SDS_P1;SDS_P2;PMS_P1;PMS_P2;Temp;Humidity;BMP_temperature;BMP_pressure;BME280_temperature;BME280_humidity;BME280_pressure;Samples;Min_cycle;Max_cycle;Signal;HPM_P1;HPM_P2
2023/01/21 00:01:11;;;;;;;6.25;3.78;;;;;;;3.81;66.21;97363.06;4909424;28;20782;-79
2023/01/21 00:03:56;;;;;;;5.43;3.47;;;;;;;3.81;66.75;97368.22;4931731;28;20641;-79
2023/01/21 00:06:22;;;;;;;5.80;3.33;;;;;;;3.78;66.47;97360.88;4946060;28;20187;-79
2023/01/21 00:08:47;;;;;;;4.10;2.83;;;;;;;3.80;66.49;97368.41;4921483;28;20253;-79
2023/01/21 00:11:14;;;;;;;4.97;2.97;;;;;;;3.87;66.82;97372.59;4929535;28;20692;-79
2023/01/21 00:13:40;;;;;;;4.95;2.78;;;;;;;3.77;66.69;97372.19;4930156;28;20285;-79
2023/01/21 00:16:06;;;;;;;5.47;3.10;;;;;;;3.77;66.43;97368.78;4925827;28;20192;-79
2023/01/21 00:18:32;;;;;;;5.32;2.70;;;;;;;3.75;66.81;97372.38;4942282;28;20212;-79
2023/01/21 00:20:58;;;;;;;3.90;2.22;;;;;;;3.77;66.34;97379.09;4936755;28;20211;-78
2023/01/21 00:23:23;;;;;;;5.20;3.10;;;;;;;3.75;66.40;97374.13;4942431;28;20690;-79
2023/01/21 00:25:48;;;;;;;3.67;2.42;;;;;;;3.72;66.94;97377.13;4936723;28;20282;-79
2023/01/21 00:28:14;;;;;;;4.35;2.70;;;;;;;3.72;66.84;97382.28;4941973;28;20684;-79
2023/01/21 00:30:40;;;;;;;4.07;2.53;;;;;;;3.73;66.79;97383.84;4926155;28;20161;-78
2023/01/21 00:33:06;;;;;;;4.10;2.40;;;;;;;3.73;66.77;97386.41;4928259;28;20657;-79
2023/01/21 00:35:31;;;;;;;2.70;2.38;;;;;;;3.75;66.83;97387.00;4942333;28;20194;-79
2023/01/21 00:37:56;;;;;;;2.85;2.10;;;;;;;3.74;67.00;97390.59;4925533;28;20595;-78
2023/01/21 00:40:22;;;;;;;3.85;2.50;;;;;;;3.73;66.82;97389.78;4943023;28;20301;-78
2023/01/21 00:42:47;;;;;;;2.83;2.13;;;;;;;3.74;66.76;97391.38;4927898;28;20200;-79
2023/01/21 00:45:12;;;;;;;3.22;2.15;;;;;;;3.73;66.86;97402.66;4937354;28;20640;-79
2023/01/21 00:47:38;;;;;;;4.53;2.38;;;;;;;3.70;66.53;97400.50;4929212;28;20239;-79
2023/01/21 00:50:04;;;;;;;3.53;2.10;;;;;;;3.72;66.87;97401.09;4905560;28;20666;-78
2023/01/21 00:52:30;;;;;;;3.13;2.13;;;;;;;3.71;66.83;97398.69;4938714;28;20079;-79
2023/01/21 00:54:55;;;;;;;2.83;2.00;;;;;;;3.75;66.73;97410.19;4912254;28;20272;-79
2023/01/21 00:57:20;;;;;;;3.00;1.98;;;;;;;3.74;66.44;97406.81;4922446;28;20214;-79
2023/01/21 00:59:46;;;;;;;2.72;1.95;;;;;;;3.71;66.62;97414.16;4923703;28;20292;-79
2023/01/21 01:02:11;;;;;;;3.15;1.67;;;;;;;3.71;67.02;97419.31;4925320;28;20205;-79
2023/01/21 01:04:37;;;;;;;2.95;1.52;;;;;;;3.73;66.49;97414.75;4924594;28;20242;-79
2023/01/21 01:07:02;;;;;;;2.00;1.42;;;;;;;3.76;66.43;97414.38;4944552;28;20332;-78
2023/01/21 01:09:28;;;;;;;2.88;1.63;;;;;;;3.74;66.37;97418.91;4944856;28;20303;-78
2023/01/21 01:11:53;;;;;;;2.47;1.83;;;;;;;3.74;66.43;97421.50;4925971;28;20492;-79
2023/01/21 01:14:18;;;;;;;2.65;1.95;;;;;;;3.75;66.92;97425.63;4924771;28;20233;-79
2023/01/21 01:16:44;;;;;;;2.13;1.48;;;;;;;3.74;66.21;97429.22;4919678;28;20169;-78
2023/01/21 01:19:10;;;;;;;2.00;1.45;;;;;;;3.76;66.51;97432.38;4910861;28;20201;-78
2023/01/21 01:21:36;;;;;;;2.05;1.30;;;;;;;3.71;66.11;97432.97;4912189;28;20184;-79
2023/01/21 01:24:02;;;;;;;2.63;1.30;;;;;;;3.74;65.99;97437.72;4927450;28;20208;-79
2023/01/21 01:26:28;;;;;;;2.50;1.30;;;;;;;3.71;66.67;97442.47;4921887;28;20452;-79
2023/01/21 01:28:53;;;;;;;1.92;1.40;;;;;;;3.65;66.46;97436.31;4927375;28;20274;-78
2023/01/21 01:31:19;;;;;;;2.42;1.45;;;;;;;3.70;66.53;97443.44;4923762;28;20172;-79
2023/01/21 01:33:45;;;;;;;2.72;1.40;;;;;;;3.76;66.39;97450.41;4943573;28;20204;-78
2023/01/21 01:36:16;;;;;;;2.15;1.40;;;;;;;3.83;65.99;97456.38;4936427;28;20199;-79
2023/01/21 01:38:42;;;;;;;2.15;1.38;;;;;;;3.76;65.90;97455.56;4939878;28;20570;-78
2023/01/21 01:41:12;;;;;;;2.58;1.67;;;;;;;3.78;66.46;97461.31;4926296;28;20173;-79
2023/01/21 01:43:48;;;;;;;2.25;1.50;;;;;;;3.90;66.26;97467.47;4936169;28;20188;-79
2023/01/21 01:46:13;;;;;;;1.80;1.10;;;;;;;3.81;65.78;97463.50;4938939;28;20227;-79
2023/01/21 01:48:42;;;;;;;1.85;1.38;;;;;;;3.81;65.94;97466.09;4944283;28;20599;-79
2023/01/21 01:51:07;;;;;;;2.05;1.23;;;;;;;3.71;66.60;97461.28;4943961;28;20535;-80
2023/01/21 01:53:34;;;;;;;2.03;1.65;;;;;;;3.70;66.36;97464.06;4926987;28;20218;-79
2023/01/21 01:56:00;;;;;;;1.98;1.30;;;;;;;3.68;66.49;97469.38;4926844;28;20208;-80
2023/01/21 01:58:27;;;;;;;2.25;1.83;;;;;;;3.67;66.76;97469.63;4902103;28;20184;-79
2023/01/21 02:00:53;;;;;;;2.00;1.50;;;;;;;3.65;66.34;97476.72;4941876;28;20212;-80
2023/01/21 02:06:02;;;;;;;3.13;1.92;;;;;;;3.56;66.26;97487.19;4930707;28;20223;-80
2023/01/21 02:08:28;;;;;;;2.15;1.70;;;;;;;3.56;66.97;97487.19;4944637;28;20115;-80
2023/01/21 02:10:55;;;;;;;2.08;1.55;;;;;;;3.60;66.40;97492.75;4943413;28;20165;-80
2023/01/21 02:13:26;;;;;;;2.22;1.77;;;;;;;3.57;66.53;97490.56;4926045;28;20279;-80
2023/01/21 02:16:24;;;;;;;2.55;2.10;;;;;;;3.59;66.77;97508.41;4938480;28;20585;-80
2023/01/21 02:19:04;;;;;;;2.22;1.70;;;;;;;3.61;67.10;97509.00;4914857;28;20302;-80
2023/01/21 02:21:48;;;;;;;2.08;1.70;;;;;;;3.59;66.34;97509.19;4934170;28;20615;-80
2023/01/21 02:24:19;;;;;;;2.85;1.65;;;;;;;3.34;66.69;97517.38;4936704;28;20184;-80
2023/01/21 02:26:57;;;;;;;2.95;1.80;;;;;;;3.44;66.24;97518.81;4928022;28;20176;-80
2023/01/21 02:29:48;;;;;;;2.53;1.88;;;;;;;3.33;66.36;97522.72;4921822;28;20238;-79
2023/01/21 02:32:35;;;;;;;3.78;2.25;;;;;;;3.39;66.54;97532.22;4923312;28;20164;-80
2023/01/21 02:35:01;;;;;;;3.40;2.22;;;;;;;3.22;66.39;97536.88;4940526;28;20184;-78
2023/01/21 02:38:05;;;;;;;5.50;2.72;;;;;;;3.31;65.81;97528.03;4942403;28;20657;-79
2023/01/21 02:40:37;;;;;;;4.78;3.05;;;;;;;3.08;66.09;97537.78;4920768;28;20102;-79
2023/01/21 02:43:21;;;;;;;5.03;3.17;;;;;;;3.07;66.21;97542.13;4964895;28;20195;-79
2023/01/21 02:45:53;;;;;;;4.30;3.22;;;;;;;3.11;66.14;97550.28;4934525;28;20199;-79
2023/01/21 02:48:21;;;;;;;4.28;3.00;;;;;;;3.12;66.86;97555.22;4949608;28;20215;-79
2023/01/21 02:50:52;;;;;;;4.43;2.60;;;;;;;3.08;66.46;97556.56;4933959;28;20187;-79
2023/01/21 02:53:22;;;;;;;5.30;3.10;;;;;;;3.19;65.96;97555.28;4941320;28;20342;-79
2023/01/21 02:55:47;;;;;;;4.15;2.72;;;;;;;3.09;66.28;97555.59;4932946;28;20211;-78
2023/01/21 02:58:15;;;;;;;4.10;2.72;;;;;;;3.09;66.42;97559.97;4946289;28;20170;-78
2023/01/21 03:00:56;;;;;;;3.83;2.40;;;;;;;3.07;66.27;97570.44;4912181;28;20315;-78
2023/01/21 03:03:22;;;;;;;3.50;1.90;;;;;;;2.94;66.91;97575.47;4948541;28;20165;-78
2023/01/21 03:06:09;;;;;;;3.10;2.20;;;;;;;2.99;66.76;97575.72;4950854;28;20337;-78
2023/01/21 03:08:41;;;;;;;2.60;2.00;;;;;;;2.70;67.57;97577.44;4950108;28;20656;-77
2023/01/21 03:11:17;;;;;;;3.53;2.40;;;;;;;3.02;67.17;97571.94;4916329;28;20293;-77
2023/01/21 03:17:41;;;;;;;3.22;2.10;;;;;;;3.03;66.62;97592.34;4923911;28;20340;-78
2023/01/21 03:20:08;;;;;;;2.95;2.30;;;;;;;2.53;66.97;97592.28;4949249;28;20669;-78
2023/01/21 03:22:34;;;;;;;3.95;2.28;;;;;;;2.57;67.89;97597.84;4958640;28;20208;-76
2023/01/21 03:25:01;;;;;;;3.53;2.25;;;;;;;2.66;67.66;97594.22;4935730;28;20115;-77
2023/01/21 03:27:27;;;;;;;4.38;2.60;;;;;;;2.32;68.09;97600.78;4932566;28;20570;-77
2023/01/21 03:30:05;;;;;;;5.25;3.33;;;;;;;2.58;67.50;97599.47;4929929;28;20526;-76
2023/01/21 03:32:31;;;;;;;3.72;2.42;;;;;;;2.64;67.19;97598.75;4913721;28;20177;-77
2023/01/21 03:34:57;;;;;;;7.35;3.70;;;;;;;2.49;67.29;97609.06;4930080;28;20170;-76
2023/01/21 03:37:29;;;;;;;5.28;3.42;;;;;;;2.62;66.72;97608.41;4932731;28;20181;-77
2023/01/21 03:40:10;;;;;;;6.38;3.45;;;;;;;2.63;65.74;97622.84;4924414;28;20183;-76
2023/01/21 03:42:35;;;;;;;6.45;3.95;;;;;;;2.55;66.27;97622.97;4925486;28;20497;-76
2023/01/21 03:45:01;;;;;;;7.32;4.43;;;;;;;2.39;67.41;97632.47;4946179;28;20191;-76
2023/01/21 03:47:30;;;;;;;8.48;4.68;;;;;;;2.49;67.15;97623.69;4932517;28;20177;-76
2023/01/21 03:50:16;;;;;;;6.88;4.55;;;;;;;2.79;66.04;97635.50;4910966;28;20215;-76
2023/01/21 03:52:43;;;;;;;9.77;5.05;;;;;;;2.68;66.11;97642.88;4925824;28;20192;-76
2023/01/21 03:55:12;;;;;;;9.90;6.07;;;;;;;2.62;66.87;97636.66;4945623;28;20192;-76
2023/01/21 03:57:37;;;;;;;11.38;5.60;;;;;;;2.65;66.46;97638.88;4925348;28;20679;-76
2023/01/21 04:00:04;;;;;;;9.75;5.65;;;;;;;2.73;66.37;97646.50;4918951;28;20525;-76
2023/01/21 04:02:30;;;;;;;11.35;5.85;;;;;;;2.30;68.47;97650.75;4928230;28;20579;-76
2023/01/21 04:04:55;;;;;;;9.75;5.40;;;;;;;2.48;67.68;97645.22;4925924;28;20196;-76
2023/01/21 04:07:20;;;;;;;11.38;5.65;;;;;;;2.55;67.36;97648.66;4931429;28;20216;-76
2023/01/21 04:09:46;;;;;;;9.10;5.68;;;;;;;2.48;67.23;97648.59;4925956;28;20410;-76
2023/01/21 04:12:11;;;;;;;9.93;5.40;;;;;;;2.50;67.47;97663.81;4929114;28;20173;-76
2023/01/21 04:14:37;;;;;;;9.77;5.93;;;;;;;2.52;67.11;97656.72;4946092;28;20176;-76
2023/01/21 04:17:03;;;;;;;9.43;5.25;;;;;;;2.55;67.70;97661.50;4943474;28;20271;-76
2023/01/21 04:19:28;;;;;;;9.68;5.50;;;;;;;2.52;67.11;97661.88;4938273;28;20196;-75
2023/01/21 04:21:53;;;;;;;9.57;5.93;;;;;;;2.52;67.44;97661.88;4937475;28;20290;-76
2023/01/21 04:24:19;;;;;;;11.20;5.82;;;;;;;2.57;67.11;97667.25;4942017;28;20235;-76
2023/01/21 04:26:44;;;;;;;10.82;5.20;;;;;;;2.33;68.30;97682.03;4934656;28;20201;-76
2023/01/21 04:29:09;;;;;;;8.60;5.85;;;;;;;2.31;67.94;97681.38;4937797;28;20297;-75
2023/01/21 04:31:35;;;;;;;8.90;5.53;;;;;;;2.54;67.76;97683.06;4929244;28;20176;-76
2023/01/21 04:34:00;;;;;;;10.65;5.10;;;;;;;2.51;67.26;97686.00;4926572;28;20217;-76
2023/01/21 04:36:26;;;;;;;10.48;5.10;;;;;;;2.52;67.48;97685.81;4936837;28;20205;-76
2023/01/21 04:38:51;;;;;;;9.68;5.28;;;;;;;2.45;67.87;97695.22;4936550;28;20700;-76
2023/01/21 04:41:16;;;;;;;10.63;5.63;;;;;;;2.34;67.44;97698.25;4939193;28;21523;-76
2023/01/21 04:43:41;;;;;;;9.23;5.60;;;;;;;2.35;67.90;97700.63;4923505;28;20219;-76
2023/01/21 04:46:07;;;;;;;9.40;4.60;;;;;;;2.46;67.05;97701.94;4939008;28;20255;-76
2023/01/21 04:48:32;;;;;;;11.20;5.63;;;;;;;2.46;67.13;97703.72;4939825;28;20508;-76
2023/01/21 04:50:58;;;;;;;10.55;5.15;;;;;;;2.38;67.64;97708.00;4906516;28;20306;-76
2023/01/21 04:53:23;;;;;;;13.13;6.32;;;;;;;2.31;67.91;97706.31;4918982;28;20170;-76
2023/01/21 04:55:52;;;;;;;12.52;6.35;;;;;;;2.32;68.05;97708.69;4936013;28;20220;-75
2023/01/21 04:58:19;;;;;;;12.25;5.90;;;;;;;2.37;67.40;97706.38;4939022;28;20353;-76
2023/01/21 05:00:44;;;;;;;14.07;7.10;;;;;;;2.37;67.44;97713.31;4934432;28;20195;-75
2023/01/21 05:03:10;;;;;;;15.48;7.85;;;;;;;2.27;67.37;97715.34;4907921;28;20169;-76
2023/01/21 05:05:35;;;;;;;15.43;8.32;;;;;;;2.30;67.59;97710.66;4937987;28;20257;-76
2023/01/21 05:08:01;;;;;;;15.15;7.30;;;;;;;2.33;67.39;97718.00;4940602;28;20638;-76
2023/01/21 05:10:26;;;;;;;14.98;7.80;;;;;;;2.43;67.27;97726.25;4934911;28;20212;-76
2023/01/21 05:12:51;;;;;;;11.18;6.82;;;;;;;2.50;66.45;97733.22;4935236;28;20468;-76
2023/01/21 05:15:17;;;;;;;19.45;8.77;;;;;;;2.49;66.68;97729.06;4943570;28;20200;-76
2023/01/21 05:17:42;;;;;;;17.13;8.05;;;;;;;2.22;67.40;97726.16;4940172;28;20208;-76
2023/01/21 05:20:08;;;;;;;18.20;9.00;;;;;;;2.15;67.67;97731.19;4945806;28;20278;-76
2023/01/21 05:22:34;;;;;;;15.48;8.15;;;;;;;2.24;66.80;97719.88;4944270;28;20645;-76
2023/01/21 05:24:59;;;;;;;16.05;8.13;;;;;;;2.39;66.10;97731.91;4946350;28;20176;-76
2023/01/21 05:27:25;;;;;;;22.35;11.43;;;;;;;2.17;66.54;97736.94;4943232;28;20196;-76
2023/01/21 05:29:51;;;;;;;21.52;10.20;;;;;;;2.13;66.83;97742.63;4943552;28;20195;-76
2023/01/21 05:32:17;;;;;;;21.38;10.38;;;;;;;2.18;66.58;97745.47;4933711;28;20098;-76
2023/01/21 05:34:43;;;;;;;19.00;10.43;;;;;;;2.17;66.48;97747.22;4943816;28;20191;-76
2023/01/21 05:37:09;;;;;;;18.65;9.23;;;;;;;2.08;67.12;97747.50;4941834;28;20215;-76
2023/01/21 05:39:34;;;;;;;16.70;8.30;;;;;;;2.19;66.85;97758.16;4944248;28;20310;-76
2023/01/21 05:41:59;;;;;;;13.43;7.25;;;;;;;2.08;67.50;97761.13;4917959;28;20702;-76
2023/01/21 05:44:25;;;;;;;15.68;8.65;;;;;;;2.01;68.30;97766.16;4928593;28;20731;-76
2023/01/21 05:46:50;;;;;;;18.83;8.85;;;;;;;2.12;67.77;97772.63;4943210;28;20222;-76
2023/01/21 05:49:15;;;;;;;16.80;8.48;;;;;;;2.30;67.74;97774.88;4926325;28;20733;-76
2023/01/21 05:51:41;;;;;;;18.10;9.18;;;;;;;2.17;67.68;97774.69;4931179;28;20200;-76
2023/01/21 05:54:07;;;;;;;21.15;9.48;;;;;;;2.18;67.94;97781.44;4942698;28;20611;-76
2023/01/21 05:56:32;;;;;;;20.33;10.80;;;;;;;2.29;67.96;97791.25;4930618;28;20281;-76
2023/01/21 05:58:57;;;;;;;23.23;11.65;;;;;;;2.30;66.97;97785.16;4934630;28;20323;-76
2023/01/21 06:01:23;;;;;;;18.63;10.07;;;;;;;2.22;67.35;97790.38;4941227;28;20203;-76
2023/01/21 06:03:48;;;;;;;20.38;9.98;;;;;;;2.15;67.73;97787.72;4943183;28;20196;-76
2023/01/21 06:06:14;;;;;;;22.10;11.32;;;;;;;2.01;68.28;97796.19;4941633;28;20190;-76
2023/01/21 06:08:39;;;;;;;24.10;12.20;;;;;;;2.06;67.38;97794.69;4952797;28;20210;-76
2023/01/21 06:11:04;;;;;;;20.90;11.15;;;;;;;2.03;67.35;97789.91;4942926;28;20130;-75
2023/01/21 06:13:30;;;;;;;23.45;11.68;;;;;;;1.96;67.76;97799.28;4944027;28;20172;-76
2023/01/21 06:15:55;;;;;;;26.85;13.20;;;;;;;2.00;67.65;97807.44;4921586;28;20277;-76
2023/01/21 06:18:21;;;;;;;25.63;12.45;;;;;;;1.91;68.16;97822.09;4943287;28;20218;-76
2023/01/21 06:20:47;;;;;;;24.65;12.30;;;;;;;1.76;68.58;97813.56;4911063;28;20274;-75
2023/01/21 06:23:12;;;;;;;27.42;12.48;;;;;;;1.97;68.72;97820.63;4940668;28;20357;-76
2023/01/21 06:25:38;;;;;;;26.88;13.75;;;;;;;2.06;67.83;97822.16;4937286;28;20165;-76
2023/01/21 06:28:10;;;;;;;29.88;15.35;;;;;;;2.10;67.72;97820.03;4923825;28;20766;-76
2023/01/21 06:30:36;;;;;;;31.23;13.95;;;;;;;1.85;68.03;97825.34;4938373;28;20272;-76
2023/01/21 06:33:01;;;;;;;29.02;14.35;;;;;;;1.80;68.89;97831.03;4908057;28;20628;-76
2023/01/21 06:35:27;;;;;;;23.20;11.82;;;;;;;1.77;68.40;97831.34;4938265;28;20223;-76
2023/01/21 06:37:52;;;;;;;27.75;12.50;;;;;;;1.78;68.44;97843.25;4938058;28;20223;-75
2023/01/21 06:40:18;;;;;;;25.23;12.05;;;;;;;1.55;69.11;97830.38;4926299;28;20161;-75
2023/01/21 06:42:47;;;;;;;25.23;12.77;;;;;;;1.81;68.49;97834.38;4933256;28;20260;-76
2023/01/21 06:45:14;;;;;;;27.50;11.63;;;;;;;1.82;67.92;97839.34;4923345;28;20579;-76
2023/01/21 06:47:43;;;;;;;25.55;12.48;;;;;;;1.88;68.06;97843.00;4922356;28;20154;-76
2023/01/21 06:50:13;;;;;;;27.60;12.98;;;;;;;1.78;67.73;97840.66;4926394;28;20207;-76
2023/01/21 06:52:41;;;;;;;25.13;12.18;;;;;;;1.70;68.26;97848.44;4926282;28;20670;-76
2023/01/21 06:55:07;;;;;;;26.30;12.90;;;;;;;1.60;67.79;97848.63;4922635;28;20361;-76
2023/01/21 06:57:32;;;;;;;27.50;12.93;;;;;;;1.60;67.80;97851.19;4920658;28;20211;-76
2023/01/21 06:59:57;;;;;;;23.35;10.38;;;;;;;1.31;68.79;97857.78;4911168;28;20209;-75
2023/01/21 07:02:23;;;;;;;24.48;11.48;;;;;;;1.46;68.29;97860.44;4916042;28;20185;-75
2023/01/21 07:04:50;;;;;;;21.02;11.30;;;;;;;1.46;68.21;97859.63;4941926;28;20209;-75
2023/01/21 07:07:15;;;;;;;22.55;10.85;;;;;;;1.38;68.30;97862.25;4941283;28;20274;-75
2023/01/21 07:09:41;;;;;;;26.45;12.73;;;;;;;1.34;68.50;97872.03;4935031;28;20307;-75
2023/01/21 07:12:06;;;;;;;25.83;11.68;;;;;;;1.38;67.95;97869.94;4942953;28;20352;-75
2023/01/21 07:14:31;;;;;;;27.30;11.07;;;;;;;1.40;67.95;97880.81;4942472;28;20278;-75
2023/01/21 07:16:57;;;;;;;19.58;10.10;;;;;;;1.54;67.53;97876.75;4942759;28;20241;-75
2023/01/21 07:19:22;;;;;;;24.27;11.65;;;;;;;1.37;67.64;97881.97;4942739;28;20084;-75
2023/01/21 07:21:48;;;;;;;32.97;18.33;;;;;;;1.25;67.86;97878.16;4943333;28;20207;-75
2023/01/21 07:24:13;;;;;;;22.02;11.25;;;;;;;1.24;67.85;97879.16;4924578;28;20300;-75
2023/01/21 07:26:38;;;;;;;26.25;12.77;;;;;;;1.25;67.83;97885.84;4935166;28;20198;-75
2023/01/21 07:29:05;;;;;;;29.27;14.27;;;;;;;1.32;67.37;97881.69;4942770;28;20209;-74
2023/01/21 07:31:31;;;;;;;22.98;10.60;;;;;;;1.17;67.59;97884.13;4932569;28;20276;-74
2023/01/21 07:33:56;;;;;;;23.52;12.25;;;;;;;1.26;67.33;97888.25;4924039;28;20334;-75
2023/01/21 07:36:22;;;;;;;21.63;12.07;;;;;;;1.31;67.01;97888.56;4930500;28;20185;-75
2023/01/21 07:38:47;;;;;;;21.10;11.13;;;;;;;1.31;65.98;97891.13;4925395;28;20215;-75
2023/01/21 07:41:12;;;;;;;21.60;10.63;;;;;;;1.24;66.39;97892.75;4929299;28;20622;-74
2023/01/21 07:43:37;;;;;;;21.27;12.20;;;;;;;1.19;66.57;97905.28;4946466;28;20672;-75
2023/01/21 07:46:03;;;;;;;27.90;13.05;;;;;;;1.28;66.50;97901.72;4945144;28;20208;-75
2023/01/21 07:48:28;;;;;;;21.38;9.60;;;;;;;1.00;66.89;97900.56;4935192;28;20590;-75
2023/01/21 07:50:57;;;;;;;23.38;10.48;;;;;;;0.93;67.10;97910.66;4944973;28;20161;-74
2023/01/21 07:53:23;;;;;;;21.42;9.88;;;;;;;0.90;67.37;97916.91;4928120;28;20279;-75
2023/01/21 07:55:48;;;;;;;22.15;12.05;;;;;;;1.10;66.93;97919.91;4944861;28;20251;-75
2023/01/21 07:58:13;;;;;;;18.52;10.00;;;;;;;0.61;67.37;97921.78;4940945;28;20288;-75
2023/01/21 08:00:39;;;;;;;19.85;9.25;;;;;;;0.67;67.87;97921.09;4929111;28;20254;-75
2023/01/21 08:03:04;;;;;;;20.23;9.65;;;;;;;0.85;67.72;97923.50;4944447;28;20192;-74
2023/01/21 08:05:29;;;;;;;22.15;10.25;;;;;;;0.98;67.19;97935.78;4940939;28;20212;-75
2023/01/21 08:07:57;;;;;;;18.88;9.73;;;;;;;0.93;67.41;97926.84;4934358;28;20254;-74
2023/01/21 08:10:22;;;;;;;19.23;8.13;;;;;;;0.69;67.56;97930.25;4928406;28;20697;-75
2023/01/21 08:12:48;;;;;;;19.35;9.05;;;;;;;0.34;67.95;97931.38;4915836;28;20197;-74
2023/01/21 08:15:13;;;;;;;20.08;9.65;;;;;;;0.71;67.34;97935.22;4946056;28;20169;-75
2023/01/21 08:17:41;;;;;;;20.05;8.48;;;;;;;0.62;67.26;97942.13;4945537;28;20714;-75
2023/01/21 08:20:07;;;;;;;16.35;8.52;;;;;;;0.63;67.83;97941.13;4940093;28;20267;-75
2023/01/21 08:22:32;;;;;;;19.48;7.88;;;;;;;0.56;67.94;97946.09;4940803;28;20195;-75
2023/01/21 08:24:57;;;;;;;18.20;8.70;;;;;;;0.54;67.60;97942.91;4942339;28;20655;-75
2023/01/21 08:27:23;;;;;;;20.45;8.82;;;;;;;0.83;67.28;97956.19;4932176;28;20750;-75
2023/01/21 08:29:49;;;;;;;18.75;8.75;;;;;;;1.03;66.68;97951.47;4945129;28;20299;-75
2023/01/21 08:32:15;;;;;;;21.40;9.82;;;;;;;0.84;67.18;97955.22;4938810;28;20815;-75
2023/01/21 08:34:41;;;;;;;21.38;8.85;;;;;;;1.04;66.39;97948.75;4928019;28;20206;-75
2023/01/21 08:37:06;;;;;;;20.30;9.48;;;;;;;1.08;66.61;97956.94;4945241;28;20268;-75
2023/01/21 08:39:31;;;;;;;22.45;9.07;;;;;;;1.19;66.41;97958.34;4945018;28;20286;-74
2023/01/21 08:41:59;;;;;;;19.35;9.93;;;;;;;1.32;65.82;97961.22;4934362;28;20336;-75
2023/01/21 08:44:24;;;;;;;23.77;10.50;;;;;;;1.28;65.28;97970.19;4926788;28;20744;-75
2023/01/21 08:46:49;;;;;;;19.85;9.23;;;;;;;1.33;65.17;97972.25;4910177;28;20196;-75
2023/01/21 08:49:15;;;;;;;18.48;9.07;;;;;;;1.12;66.00;97971.81;4937252;28;20264;-75
2023/01/21 08:51:40;;;;;;;23.85;9.27;;;;;;;1.17;66.32;97979.03;4944483;28;20250;-74
2023/01/21 08:54:06;;;;;;;19.13;8.80;;;;;;;1.20;65.90;97976.16;4939153;28;20335;-75
2023/01/21 08:56:32;;;;;;;16.27;7.93;;;;;;;1.31;65.25;97970.66;4943011;28;20165;-75
2023/01/21 08:58:57;;;;;;;22.13;8.38;;;;;;;1.27;65.85;97984.78;4941323;28;20202;-75
2023/01/21 09:01:26;;;;;;;21.23;8.65;;;;;;;1.09;66.12;97981.63;4930181;28;20199;-75
2023/01/21 09:03:58;;;;;;;17.58;7.72;;;;;;;1.36;65.61;97982.19;4920174;28;20189;-75
2023/01/21 09:06:25;;;;;;;19.52;9.50;;;;;;;0.97;66.49;97988.84;4940915;28;20212;-74
2023/01/21 09:08:51;;;;;;;15.85;7.60;;;;;;;0.78;67.16;97989.19;4927467;28;20283;-75
2023/01/21 09:11:16;;;;;;;17.33;8.48;;;;;;;0.91;66.54;97985.19;4937951;28;20224;-74
2023/01/21 09:13:45;;;;;;;19.83;8.68;;;;;;;0.81;66.49;97988.88;4938126;28;20138;-75
2023/01/21 09:16:12;;;;;;;18.58;9.02;;;;;;;0.66;67.66;97992.06;4940885;28;20311;-75
2023/01/21 09:18:38;;;;;;;27.50;10.40;;;;;;;0.84;66.62;97985.97;4942450;28;20175;-75
2023/01/21 09:21:04;;;;;;;21.40;8.88;;;;;;;0.58;68.16;97986.94;4911645;28;20207;-75
2023/01/21 09:23:33;;;;;;;19.23;8.43;;;;;;;0.53;67.70;97987.44;4945272;28;20258;-75
2023/01/21 09:26:06;;;;;;;19.17;9.40;;;;;;;0.54;67.51;97994.16;4939306;28;20648;-75
2023/01/21 09:28:33;;;;;;;21.40;8.68;;;;;;;0.64;67.57;97993.22;4907674;28;20272;-74
2023/01/21 09:31:01;;;;;;;23.27;10.43;;;;;;;0.58;67.70;97994.63;4934689;28;20244;-75
2023/01/21 09:33:30;;;;;;;20.83;9.68;;;;;;;0.63;67.50;97994.94;4926991;28;20601;-75
2023/01/21 09:35:57;;;;;;;19.27;10.05;;;;;;;0.81;66.82;97992.25;4938909;28;20212;-75
2023/01/21 09:38:23;;;;;;;19.83;9.38;;;;;;;0.65;67.61;98005.03;4941350;28;20264;-75
2023/01/21 09:40:49;;;;;;;21.50;9.40;;;;;;;0.88;66.88;98006.00;4943487;28;20854;-74
2023/01/21 09:43:21;;;;;;;19.80;9.50;;;;;;;0.77;66.74;98008.88;4927678;28;20184;-74
2023/01/21 09:45:47;;;;;;;20.15;9.07;;;;;;;0.76;66.68;98004.72;4946243;28;20223;-75
2023/01/21 09:48:24;;;;;;;17.88;9.88;;;;;;;1.04;66.73;98012.06;4944182;28;20641;-74
2023/01/21 09:50:50;;;;;;;21.93;10.03;;;;;;;1.05;66.49;98011.91;4943367;28;20170;-75
2023/01/21 09:53:35;;;;;;;23.65;10.02;;;;;;;1.29;66.22;98005.94;4911353;28;20205;-75
2023/01/21 09:56:01;;;;;;;20.10;8.68;;;;;;;1.15;66.44;98023.75;4927927;28;20255;-75
2023/01/21 09:58:49;;;;;;;21.30;9.40;;;;;;;1.54;65.07;98026.38;4913726;28;20654;-74
2023/01/21 10:01:18;;;;;;;21.60;9.73;;;;;;;1.30;66.07;98022.94;4927329;28;20160;-74
2023/01/21 10:03:53;;;;;;;19.33;8.63;;;;;;;1.55;65.47;98028.00;4927224;28;20172;-74
2023/01/21 10:06:24;;;;;;;16.80;8.10;;;;;;;1.37;65.44;98032.53;4927525;28;20160;-75
2023/01/21 10:09:01;;;;;;;20.27;9.20;;;;;;;1.37;65.71;98029.97;4927715;28;20169;-76
2023/01/21 10:11:38;;;;;;;18.80;8.38;;;;;;;1.36;65.83;98029.19;4920903;28;20664;-75
2023/01/21 10:14:13;;;;;;;18.23;8.43;;;;;;;1.35;66.06;98035.25;4926844;28;20389;-74
2023/01/21 10:17:12;;;;;;;16.45;8.30;;;;;;;1.72;65.68;98039.00;4927542;28;20418;-74
2023/01/21 10:19:41;;;;;;;20.38;8.50;;;;;;;1.55;65.48;98038.25;4926793;28;20279;-75
2023/01/21 10:22:15;;;;;;;20.55;9.82;;;;;;;1.80;65.12;98045.88;4943646;28;20203;-76
2023/01/21 10:24:47;;;;;;;19.05;8.32;;;;;;;2.05;64.80;98042.22;4926616;28;20207;-75
2023/01/21 10:27:15;;;;;;;25.33;10.32;;;;;;;1.89;64.03;98046.66;4911017;28;20645;-75
2023/01/21 10:29:41;;;;;;;21.00;8.95;;;;;;;1.67;64.92;98042.06;4927345;28;20188;-75
2023/01/21 10:32:13;;;;;;;20.52;8.75;;;;;;;1.78;65.64;98042.69;4924255;28;20278;-75
2023/01/21 10:34:46;;;;;;;21.33;10.68;;;;;;;2.03;64.80;98038.25;4921884;28;20266;-75
2023/01/21 10:37:20;;;;;;;18.20;9.68;;;;;;;1.95;65.11;98041.63;4943401;28;20176;-76
2023/01/21 10:40:11;;;;;;;18.60;9.48;;;;;;;1.45;65.42;98046.16;4942849;28;20174;-76
2023/01/21 10:42:56;;;;;;;21.95;8.50;;;;;;;1.66;65.01;98035.34;4930888;28;20343;-75
2023/01/21 10:45:54;;;;;;;20.33;9.57;;;;;;;1.79;64.87;98039.94;4907700;28;20192;-75
2023/01/21 10:48:33;;;;;;;18.17;8.27;;;;;;;1.64;65.13;98031.34;4908372;28;20253;-75
2023/01/21 10:51:12;;;;;;;16.00;7.95;;;;;;;1.78;64.23;98030.66;4922517;28;20575;-75
2023/01/21 10:53:45;;;;;;;17.45;8.05;;;;;;;1.58;65.94;98030.25;4897212;28;20602;-75
2023/01/21 10:56:13;;;;;;;19.35;9.50;;;;;;;1.54;65.56;98031.53;4922810;28;20323;-75
2023/01/21 10:58:47;;;;;;;23.85;9.02;;;;;;;1.55;65.59;98035.69;4934953;28;20359;-75
2023/01/21 11:01:36;;;;;;;19.13;8.68;;;;;;;1.74;65.58;98037.06;4904720;28;20251;-75
2023/01/21 11:04:22;;;;;;;19.85;9.30;;;;;;;1.49;64.77;98034.59;4936052;28;20721;-76
2023/01/21 11:06:57;;;;;;;19.35;9.55;;;;;;;1.55;64.93;98027.22;4947042;28;20218;-75
2023/01/21 11:09:23;;;;;;;;;;;;;;;1.72;64.62;98022.81;4945279;28;20169;-76
2023/01/21 11:11:48;;;;;;;18.70;8.23;;;;;;;1.62;64.93;98030.72;4939814;28;20125;-75
2023/01/21 11:14:14;;;;;;;16.50;7.30;;;;;;;1.53;65.42;98024.00;4944015;28;20277;-75
2023/01/21 11:16:42;;;;;;;19.60;8.82;;;;;;;1.55;64.83;98027.22;4945160;28;20232;-75
2023/01/21 11:19:11;;;;;;;17.42;8.02;;;;;;;1.31;65.33;98024.53;4938173;28;20605;-75
2023/01/21 11:21:38;;;;;;;15.75;6.95;;;;;;;1.23;65.19;98026.31;4942937;28;20344;-75
2023/01/21 11:24:20;;;;;;;16.73;7.63;;;;;;;1.89;64.71;98028.69;4929435;28;20736;-75
2023/01/21 11:26:54;;;;;;;18.52;7.90;;;;;;;1.66;64.35;98025.09;4907739;28;20377;-76
2023/01/21 11:29:20;;;;;;;14.75;7.70;;;;;;;1.74;64.43;98023.44;4926764;28;20161;-75
2023/01/21 11:32:02;;;;;;;14.50;8.07;;;;;;;1.94;63.59;98016.94;4919436;28;20279;-76
2023/01/21 11:34:28;;;;;;;16.13;7.43;;;;;;;1.49;63.97;98015.81;4935074;28;20203;-75
2023/01/21 11:37:04;;;;;;;14.50;6.72;;;;;;;1.41;64.05;98016.66;4935035;28;20193;-75
2023/01/21 11:39:32;;;;;;;13.80;7.05;;;;;;;1.42;64.11;98013.13;4937242;28;20288;-75
2023/01/21 11:42:04;;;;;;;15.35;7.00;;;;;;;1.45;64.26;98017.13;4929433;28;20209;-75
2023/01/21 11:44:29;;;;;;;12.60;6.55;;;;;;;1.16;65.52;98017.66;4938102;28;20164;-75
2023/01/21 11:46:55;;;;;;;15.55;7.47;;;;;;;1.41;64.83;98016.66;4945618;28;20405;-75